Cayman Brac, Cayman Islands

2:16 AM EST on October 24, 2014 (GMT -0500)
Gerrard-Smith International | Change Station
CLOSE
Current Station
Airport
Location: Cayman Brac,
Elevation: 7 ft
Nearby Weather Stations

Elev 7 ft 19.69 °N, 79.88 °W | Updated 7 hours ago

Thunderstorm
Thunderstorm
84 °F
Feels Like 93 °F
N
18
Wind Variable Wind from South
Gusts mph

Today
High -- | Low -- °F
--% Chance of Precip.
Yesterday
High -- | Low -- °F
Precip. -- in
6:17 AM 5:49 PM
New Moon, 0% visible
Pressure 29.83 in
Visibility 6.2 miles
Clouds Few 1400 ft
Scattered Clouds 3000 ft
Heat Index 93 °F
Dew Point 77 °F
Humidity 79%
Rainfall 0.00 in
Snow Depth Not available.
UV 0 out of 12
Pollen Not available.
Air Quality Not available.
Flu Activity Not available.
METAR MWCB 240000Z 15006KT 9999 TS FEW014CB SCT030 27/24 Q1010

More Conditions Fewer Conditions

Pressure 29.83 in
Visibility 6.2 miles
Clouds Few 1400 ft
Scattered Clouds 3000 ft
Heat Index 93 °F
Dew Point 77 °F
Humidity 79%
Rainfall 0.00 in
Snow Depth Not available.
UV 0 out of 12
Pollen Not available.
Air Quality Not available.
Flu Activity Not available.
METAR MWCB 240000Z 15006KT 9999 TS FEW014CB SCT030 27/24 Q1010

More Conditions Fewer Conditions

10-Day Weather Forecast

Almanac

Astronomy

Oct. 24, 2014 Rise Set
Actual Time 6:17 AM EST 5:49 PM EST
Civil Twilight 5:54 AM EST 6:12 PM EST
Nautical Twilight 5:29 AM EST 6:38 PM EST
Astronomical Twilight 5:03 AM EST 7:03 PM EST
Moon 6:51 AM EST 6:34 PM EST
Length of Visible Light 12h 17m
Length of Day
11h 32m
Tomorrow will be 1m 1s shorter.
New Moon, 0% of the Moon is Illuminated
Today
New Moon
Oct 30
First Quarter
Nov 6
Full
Nov 14
Last Quarter
Nov 22
New

Yesterday's Extremes

Country Highs Country Lows

Community

WunderPhotos

Upload Photos

1,764,510 photos uploaded!

WunderBlogs® & News

Nearby

Snow Depth

Not available.

Earthquake Activity

City Distance Mag. Time & Date
No recent earthquake activity has been reported nearby.
Minimum magnitude displayed is 2.5.

Coastal Water Temperatures

Place Temperature
No Stations Reporting

Nearby Weather Stations